Previous Day
Next Day
Current Day
SHEF ID: FVSO2 FAIRVIEW
STATION TYPE: Mesonet
PRECIP AIR-TEMP WIND-DIRWIND-SPEED REL-HUMID SOLAR-RAD
in F deg mph % W/m2
Raw-Meson Raw-Meson Raw-Meson Raw-Meson Raw-Meson Raw-Meson
(US/Central)
05/12 00:00 0.00 46.27 254.75 4.58 85.75 0.00
05/12 01:00 0.00 45.27 269.25 3.97 87.25 0.00
05/12 02:00 0.00 43.43 327.50 3.80 93.00 0.00
05/12 03:00 0.00 43.38 333.75 4.86 94.75 0.00
05/12 04:00 0.00 43.52 313.75 5.54 94.75 0.00
05/12 05:00 0.00 43.02 319.75 4.70 95.25 0.00
05/12 06:00 0.00 42.04 306.25 5.03 95.75 0.00
05/12 07:00 0.00 43.20 306.00 6.26 96.00 25.00
05/12 08:00 0.00 46.00 332.75 4.97 93.75 164.00
05/12 09:00 0.00 48.52 101.50 7.77 90.25 262.50
05/12 10:00 0.00 52.38 25.50 6.38 83.25 563.75
05/12 11:00 0.00 55.81 117.75 3.74 75.00 591.75
05/12 12:00 0.00 59.00 115.25 6.04 68.00 570.25
05/12 13:00 0.00 60.84 44.75 5.54 62.00 725.25
05/12 14:00 0.00 62.06 41.75 4.64 57.00 653.50
05/12 15:00 0.00 62.56 18.25 4.92 55.75 434.25
05/12 16:00 0.00 64.98 43.50 5.48 48.75 659.25
05/12 17:00 0.00 64.85 50.25 5.37 48.75 460.50
05/12 18:00 0.00 64.49 35.00 3.63 49.25 279.50
05/12 19:00 0.00 63.81 94.75 3.08 53.25 197.75
05/12 20:00 0.00 63.19 68.50 4.47 54.00 104.00
05/12 21:00 0.00 58.28 65.75 3.97 69.00 4.75
05/12 22:00 0.00 55.76 69.00 4.70 75.25 0.00
05/12 23:00 ---- 51.84 108.00 3.41 85.50 0.00